Time;durP1;ratioP1;P1;durP2;ratioP2;P2;SDS_P1;SDS_P2;PMS_P1;PMS_P2;Temp;Humidity;BMP_temperature;BMP_pressure;BME280_temperature;BME280_humidity;BME280_pressure;Samples;Min_cycle;Max_cycle;Signal;HPM_P1;HPM_P2
2023/03/01 00:00:07;;;;;;;13.57;8.43;;;;;;;;;;5034186;28;20218;-29
2023/03/01 00:02:35;;;;;;;11.20;7.67;;;;;;;;;;5042472;28;20244;-29
2023/03/01 00:05:02;;;;;;;11.77;7.47;;;;;;;;;;5047068;28;20206;-31
2023/03/01 00:07:29;;;;;;;12.87;8.10;;;;;;;;;;5030757;28;20284;-30
2023/03/01 00:09:56;;;;;;;12.67;8.13;;;;;;;;;;5039397;28;20213;-29
2023/03/01 00:12:25;;;;;;;13.20;7.77;;;;;;;;;;5029764;28;20211;-32
2023/03/01 00:14:52;;;;;;;11.87;8.20;;;;;;;;;;5043646;28;20583;-28
2023/03/01 00:17:19;;;;;;;12.43;7.90;;;;;;;;;;5039116;28;20226;-28
2023/03/01 00:19:46;;;;;;;13.43;8.17;;;;;;;;;;5031332;28;20301;-32
2023/03/01 00:22:13;;;;;;;12.07;8.13;;;;;;;;;;5032015;28;20201;-26
2023/03/01 00:24:40;;;;;;;13.27;8.30;;;;;;;;;;5038933;28;20214;-28
2023/03/01 00:27:07;;;;;;;10.93;7.67;;;;;;;;;;5038124;28;20238;-31
2023/03/01 00:29:36;;;;;;;11.60;7.40;;;;;;;;;;5042290;28;20203;-30
2023/03/01 00:32:03;;;;;;;13.70;8.00;;;;;;;;;;5041356;28;20209;-27
2023/03/01 00:34:30;;;;;;;11.90;7.80;;;;;;;;;;5032932;28;20210;-29
2023/03/01 00:37:04;;;;;;;13.90;8.10;;;;;;;;;;5032885;28;20230;-28
2023/03/01 00:39:31;;;;;;;11.37;7.47;;;;;;;;;;5039330;28;20209;-28
2023/03/01 00:41:59;;;;;;;11.13;7.13;;;;;;;;;;5037258;28;20241;-30
2023/03/01 00:44:26;;;;;;;14.20;8.33;;;;;;;;;;5034154;28;20213;-31
2023/03/01 00:46:54;;;;;;;12.30;6.77;;;;;;;;;;5038120;28;20230;-28
2023/03/01 00:49:24;;;;;;;9.70;7.17;;;;;;;;;;5029567;28;20687;-28
2023/03/01 00:51:51;;;;;;;11.33;7.93;;;;;;;;;;5039055;28;20206;-27
2023/03/01 00:54:18;;;;;;;17.57;7.60;;;;;;;;;;5039037;28;20206;-31
2023/03/01 00:56:45;;;;;;;12.00;7.20;;;;;;;;;;5029858;28;20215;-31
2023/03/01 00:59:12;;;;;;;12.67;6.93;;;;;;;;;;5040509;28;20257;-31
2023/03/01 01:01:39;;;;;;;13.83;8.13;;;;;;;;;;5038014;28;20203;-30
2023/03/01 01:04:09;;;;;;;13.07;6.90;;;;;;;;;;5046840;28;20305;-31
2023/03/01 01:06:38;;;;;;;9.83;7.17;;;;;;;;;;5038912;28;20692;-27
2023/03/01 01:09:06;;;;;;;9.43;6.93;;;;;;;;;;5037310;28;20640;-28
2023/03/01 01:11:34;;;;;;;11.40;7.13;;;;;;;;;;5041935;28;20289;-28
2023/03/01 01:14:01;;;;;;;13.13;7.83;;;;;;;;;;5031581;28;20206;-31
2023/03/01 01:16:29;;;;;;;12.30;7.30;;;;;;;;;;5032970;28;20227;-32
2023/03/01 01:18:57;;;;;;;11.63;8.00;;;;;;;;;;5049153;28;20225;-30
2023/03/01 01:21:26;;;;;;;14.53;8.40;;;;;;;;;;5049453;28;20214;-31
2023/03/01 01:26:23;;;;;;;13.80;7.90;;;;;;;;;;5008290;28;20239;-30
2023/03/01 01:28:50;;;;;;;11.13;7.93;;;;;;;;;;4995149;28;20215;-31
2023/03/01 01:31:18;;;;;;;11.33;7.47;;;;;;;;;;5000902;28;20210;-30
2023/03/01 01:33:45;;;;;;;9.43;6.80;;;;;;;;;;5009371;28;20682;-31
2023/03/01 01:36:13;;;;;;;10.50;7.00;;;;;;;;;;5009889;28;20231;-31
2023/03/01 01:38:42;;;;;;;11.17;7.43;;;;;;;;;;5001073;28;20223;-31
2023/03/01 01:41:11;;;;;;;12.20;8.03;;;;;;;;;;5008998;28;20417;-31
2023/03/01 01:43:40;;;;;;;12.80;7.00;;;;;;;;;;5003630;28;20204;-28
2023/03/01 01:46:12;;;;;;;12.40;8.27;;;;;;;;;;5001771;28;20310;-34
2023/03/01 01:48:41;;;;;;;13.63;7.17;;;;;;;;;;5009107;28;20732;-32
2023/03/01 01:51:11;;;;;;;10.73;7.30;;;;;;;;;;5006016;28;20587;-32
2023/03/01 01:53:38;;;;;;;9.47;6.43;;;;;;;;;;4995078;28;20211;-30
2023/03/01 01:56:09;;;;;;;14.77;8.30;;;;;;;;;;5013224;28;20203;-31
2023/03/01 01:58:37;;;;;;;12.43;7.53;;;;;;;;;;5007284;28;20230;-30
2023/03/01 02:01:04;;;;;;;13.57;8.50;;;;;;;;;;5005912;28;20204;-33
2023/03/01 02:03:37;;;;;;;13.13;8.23;;;;;;;;;;5007213;28;20206;-30
2023/03/01 02:06:05;;;;;;;11.00;7.30;;;;;;;;;;5012670;28;20210;-31
2023/03/01 02:08:35;;;;;;;13.37;7.77;;;;;;;;;;5013025;28;20199;-30
2023/03/01 02:11:04;;;;;;;11.43;7.03;;;;;;;;;;5003500;28;20210;-32
2023/03/01 02:13:32;;;;;;;13.37;8.47;;;;;;;;;;4999541;28;20196;-35
2023/03/01 02:16:00;;;;;;;12.00;8.07;;;;;;;;;;5009175;28;20213;-32
2023/03/01 02:18:27;;;;;;;12.33;8.30;;;;;;;;;;5012504;28;20215;-34
2023/03/01 02:21:02;;;;;;;13.00;8.17;;;;;;;;;;5010851;28;20676;-36
2023/03/01 02:23:29;;;;;;;15.03;9.00;;;;;;;;;;5007819;28;20199;-30
2023/03/01 02:26:01;;;;;;;12.60;8.43;;;;;;;;;;5012937;28;20258;-29
2023/03/01 02:28:32;;;;;;;16.70;8.53;;;;;;;;;;5007162;28;20234;-30
2023/03/01 02:33:45;;;;;;;14.77;9.43;;;;;;;;;;5012318;28;20209;-30
2023/03/01 02:36:15;;;;;;;17.00;9.73;;;;;;;;;;5009198;28;20228;-36
2023/03/01 02:38:43;;;;;;;13.93;8.30;;;;;;;;;;5005736;28;20219;-28
2023/03/01 02:41:12;;;;;;;14.67;8.27;;;;;;;;;;5012305;28;20215;-32
2023/03/01 02:43:41;;;;;;;14.03;7.93;;;;;;;;;;5004598;28;20203;-33
2023/03/01 02:46:09;;;;;;;12.80;8.07;;;;;;;;;;5004633;28;20235;-31
2023/03/01 02:48:43;;;;;;;13.77;8.60;;;;;;;;;;5012110;28;20195;-35
2023/03/01 02:51:18;;;;;;;15.57;6.97;;;;;;;;;;5006027;28;20214;-29
2023/03/01 02:53:49;;;;;;;13.73;8.70;;;;;;;;;;5011424;28;20234;-30
2023/03/01 02:56:17;;;;;;;13.43;8.60;;;;;;;;;;5012323;28;20227;-36
2023/03/01 02:58:47;;;;;;;17.27;10.93;;;;;;;;;;5002994;28;20230;-33
2023/03/01 03:01:15;;;;;;;12.70;8.20;;;;;;;;;;5002769;28;20214;-31
2023/03/01 03:03:42;;;;;;;14.97;8.97;;;;;;;;;;5011916;28;20619;-31
2023/03/01 03:06:10;;;;;;;13.30;8.47;;;;;;;;;;5002415;28;20215;-34
2023/03/01 03:08:37;;;;;;;11.33;7.63;;;;;;;;;;5003559;28;20351;-31
2023/03/01 03:11:04;;;;;;;11.83;8.10;;;;;;;;;;5011836;28;20207;-30
2023/03/01 03:13:32;;;;;;;13.80;9.50;;;;;;;;;;5002957;28;20207;-32
2023/03/01 03:16:00;;;;;;;16.83;9.77;;;;;;;;;;5007990;28;20207;-28
2023/03/01 03:18:27;;;;;;;15.17;9.27;;;;;;;;;;5011494;28;20635;-30
2023/03/01 03:20:55;;;;;;;14.63;9.87;;;;;;;;;;5002832;28;20204;-30
2023/03/01 03:23:22;;;;;;;13.97;9.07;;;;;;;;;;5002100;28;20258;-30
2023/03/01 03:25:50;;;;;;;14.70;9.47;;;;;;;;;;5011303;28;20213;-31
2023/03/01 03:28:17;;;;;;;17.93;9.63;;;;;;;;;;5005899;28;20215;-31
2023/03/01 03:30:44;;;;;;;16.80;8.57;;;;;;;;;;5011217;28;20650;-35
2023/03/01 03:33:13;;;;;;;13.17;7.90;;;;;;;;;;5011511;28;20516;-34
2023/03/01 03:35:42;;;;;;;14.13;8.30;;;;;;;;;;5011794;28;20242;-31
2023/03/01 03:38:15;;;;;;;12.03;8.23;;;;;;;;;;5001781;28;20223;-31
2023/03/01 03:40:43;;;;;;;13.90;9.37;;;;;;;;;;5011233;28;20203;-33
2023/03/01 03:43:12;;;;;;;18.83;9.63;;;;;;;;;;4999649;28;20663;-31
2023/03/01 03:45:39;;;;;;;15.77;8.93;;;;;;;;;;5004462;28;20212;-32
2023/03/01 03:48:09;;;;;;;13.90;9.10;;;;;;;;;;5013132;28;20704;-32
2023/03/01 03:50:37;;;;;;;13.87;8.50;;;;;;;;;;5015703;28;20219;-35
2023/03/01 03:53:05;;;;;;;13.67;8.00;;;;;;;;;;5006050;28;20219;-29
2023/03/01 03:55:33;;;;;;;11.33;7.67;;;;;;;;;;5010854;28;20234;-30
2023/03/01 03:58:06;;;;;;;14.47;8.40;;;;;;;;;;5006294;28;20447;-31
2023/03/01 04:00:34;;;;;;;13.00;8.67;;;;;;;;;;4995690;28;20214;-29
2023/03/01 04:03:04;;;;;;;14.23;8.47;;;;;;;;;;5010981;28;20214;-29
2023/03/01 04:05:31;;;;;;;12.13;9.00;;;;;;;;;;5007844;28;20198;-32
2023/03/01 04:08:06;;;;;;;16.03;9.27;;;;;;;;;;5006399;28;20231;-30
2023/03/01 04:10:34;;;;;;;12.03;8.60;;;;;;;;;;5003628;28;20203;-28
2023/03/01 04:13:01;;;;;;;14.90;9.50;;;;;;;;;;5007386;28;20658;-28
2023/03/01 04:15:29;;;;;;;13.60;8.47;;;;;;;;;;5004159;28;20203;-33
2023/03/01 04:17:58;;;;;;;17.60;9.23;;;;;;;;;;5013675;28;20227;-31
2023/03/01 04:20:28;;;;;;;16.27;9.07;;;;;;;;;;5008764;28;20314;-31
2023/03/01 04:22:58;;;;;;;14.47;8.43;;;;;;;;;;5007974;28;20211;-34
2023/03/01 04:25:27;;;;;;;12.80;8.70;;;;;;;;;;5014351;28;20211;-33
2023/03/01 04:27:54;;;;;;;14.33;9.60;;;;;;;;;;5007880;28;20224;-30
2023/03/01 04:30:25;;;;;;;14.57;8.97;;;;;;;;;;5009906;28;20196;-32
2023/03/01 04:32:52;;;;;;;14.00;9.37;;;;;;;;;;5010308;28;20208;-33
2023/03/01 04:35:19;;;;;;;11.93;8.33;;;;;;;;;;5007005;28;20208;-29
2023/03/01 04:37:46;;;;;;;14.23;9.33;;;;;;;;;;5008267;28;20736;-30
2023/03/01 04:40:16;;;;;;;14.27;9.00;;;;;;;;;;5009931;28;20226;-29
2023/03/01 04:42:44;;;;;;;14.20;8.17;;;;;;;;;;5003650;28;20212;-30
2023/03/01 04:45:13;;;;;;;14.30;8.50;;;;;;;;;;4992665;28;20215;-31
2023/03/01 04:47:42;;;;;;;14.30;8.93;;;;;;;;;;5009989;28;20219;-33
2023/03/01 04:50:10;;;;;;;16.30;9.10;;;;;;;;;;5010792;28;20203;-36
2023/03/01 04:52:37;;;;;;;13.77;8.87;;;;;;;;;;5002408;28;20207;-29
2023/03/01 04:55:04;;;;;;;14.87;9.43;;;;;;;;;;4999510;28;20212;-29
2023/03/01 04:57:32;;;;;;;15.73;9.03;;;;;;;;;;5005096;28;20227;-32
2023/03/01 05:00:01;;;;;;;15.90;8.77;;;;;;;;;;4997664;28;20250;-33
2023/03/01 05:02:29;;;;;;;15.10;9.57;;;;;;;;;;5010032;28;20211;-33
2023/03/01 05:04:57;;;;;;;15.07;9.33;;;;;;;;;;5010760;28;20523;-34
2023/03/01 05:07:26;;;;;;;15.33;9.20;;;;;;;;;;4993358;28;20238;-29
2023/03/01 05:09:54;;;;;;;15.53;8.90;;;;;;;;;;5005117;28;20662;-31
2023/03/01 05:12:21;;;;;;;15.33;9.47;;;;;;;;;;5006287;28;20213;-30
2023/03/01 05:14:48;;;;;;;15.03;9.27;;;;;;;;;;4995798;28;20214;-33
2023/03/01 05:17:16;;;;;;;15.97;9.00;;;;;;;;;;5009836;28;20230;-31
2023/03/01 05:19:43;;;;;;;18.10;10.93;;;;;;;;;;5007377;28;20429;-35
2023/03/01 05:22:11;;;;;;;16.83;9.13;;;;;;;;;;5002646;28;20226;-32
2023/03/01 05:24:38;;;;;;;14.73;8.83;;;;;;;;;;5009318;28;20206;-32
2023/03/01 05:27:06;;;;;;;16.17;10.40;;;;;;;;;;5008923;28;20238;-27
2023/03/01 05:29:34;;;;;;;14.37;8.53;;;;;;;;;;4994296;28;20211;-31
2023/03/01 05:32:02;;;;;;;15.43;9.40;;;;;;;;;;5012605;28;20581;-29
2023/03/01 05:34:32;;;;;;;16.60;9.37;;;;;;;;;;4996379;28;20204;-27
2023/03/01 05:36:59;;;;;;;14.53;9.10;;;;;;;;;;5006550;28;20716;-31
2023/03/01 05:39:27;;;;;;;13.83;8.27;;;;;;;;;;5015535;28;20222;-31
2023/03/01 05:41:55;;;;;;;14.97;8.17;;;;;;;;;;5016395;28;20265;-31
2023/03/01 05:44:22;;;;;;;16.33;10.13;;;;;;;;;;5011837;28;20217;-32
2023/03/01 05:46:49;;;;;;;16.67;10.20;;;;;;;;;;5015762;28;20237;-30
2023/03/01 05:49:16;;;;;;;16.37;9.60;;;;;;;;;;5015754;28;20207;-31
2023/03/01 05:51:49;;;;;;;16.77;9.67;;;;;;;;;;5011400;28;20215;-32
2023/03/01 05:54:16;;;;;;;16.93;9.47;;;;;;;;;;5001766;28;20204;-30
2023/03/01 05:56:43;;;;;;;15.70;8.60;;;;;;;;;;5015796;28;20214;-30
2023/03/01 05:59:10;;;;;;;16.40;9.40;;;;;;;;;;5012908;28;20226;-29
2023/03/01 06:01:37;;;;;;;15.53;9.90;;;;;;;;;;5015723;28;20214;-29
2023/03/01 06:04:05;;;;;;;15.23;9.33;;;;;;;;;;5015946;28;20203;-34
2023/03/01 06:06:37;;;;;;;18.00;10.73;;;;;;;;;;5011323;28;20224;-28
2023/03/01 06:09:07;;;;;;;15.70;10.10;;;;;;;;;;5005051;28;20578;-32
2023/03/01 06:11:35;;;;;;;22.47;10.77;;;;;;;;;;5015805;28;20199;-31
2023/03/01 06:14:02;;;;;;;15.90;10.00;;;;;;;;;;5006762;28;20541;-29
2023/03/01 06:16:29;;;;;;;16.80;9.80;;;;;;;;;;5010793;28;20569;-28
2023/03/01 06:18:56;;;;;;;16.50;9.60;;;;;;;;;;5018393;28;20218;-30
2023/03/01 06:21:23;;;;;;;15.40;9.37;;;;;;;;;;5012371;28;20227;-30
2023/03/01 06:23:51;;;;;;;16.70;9.83;;;;;;;;;;5018044;28;20207;-32
2023/03/01 06:26:20;;;;;;;16.57;9.43;;;;;;;;;;5019329;28;20238;-29
2023/03/01 06:28:47;;;;;;;16.73;8.97;;;;;;;;;;5018380;28;20214;-32
2023/03/01 06:31:14;;;;;;;18.23;10.17;;;;;;;;;;5019230;28;20203;-31
2023/03/01 06:33:44;;;;;;;16.90;10.07;;;;;;;;;;5018418;28;20830;-28
2023/03/01 06:36:11;;;;;;;16.20;10.23;;;;;;;;;;5014647;28;20223;-27
2023/03/01 06:38:40;;;;;;;12.70;8.37;;;;;;;;;;5013534;28;20199;-32
2023/03/01 06:41:07;;;;;;;12.13;8.73;;;;;;;;;;5015077;28;20231;-31
2023/03/01 06:43:36;;;;;;;16.77;10.53;;;;;;;;;;5005721;28;20207;-29
2023/03/01 06:46:06;;;;;;;14.50;9.57;;;;;;;;;;5007908;28;20211;-30
2023/03/01 06:48:33;;;;;;;17.27;9.40;;;;;;;;;;5007707;28;20195;-30
2023/03/01 06:51:01;;;;;;;16.90;10.53;;;;;;;;;;5013233;28;20294;-32
2023/03/01 06:53:28;;;;;;;15.23;9.67;;;;;;;;;;5006299;28;20203;-30
2023/03/01 06:55:56;;;;;;;15.10;9.30;;;;;;;;;;5012782;28;20214;-32
2023/03/01 06:58:23;;;;;;;16.63;9.00;;;;;;;;;;5004916;28;20211;-30
2023/03/01 07:00:52;;;;;;;16.63;9.60;;;;;;;;;;5007345;28;20263;-29
2023/03/01 07:03:19;;;;;;;17.50;10.40;;;;;;;;;;5014585;28;20208;-29
2023/03/01 07:05:52;;;;;;;19.10;10.50;;;;;;;;;;5008236;28;20212;-27
2023/03/01 07:08:19;;;;;;;15.47;10.07;;;;;;;;;;5012390;28;20243;-30
2023/03/01 07:10:46;;;;;;;14.53;9.57;;;;;;;;;;5014540;28;20211;-30
2023/03/01 07:13:13;;;;;;;14.70;9.17;;;;;;;;;;5007726;28;20605;-26
2023/03/01 07:15:42;;;;;;;15.47;9.67;;;;;;;;;;5007445;28;20207;-28
2023/03/01 07:18:10;;;;;;;17.10;9.80;;;;;;;;;;5014848;28;20273;-30
2023/03/01 07:20:37;;;;;;;14.93;9.63;;;;;;;;;;5011288;28;20223;-28
2023/03/01 07:23:04;;;;;;;16.97;9.73;;;;;;;;;;5014413;28;20211;-29
2023/03/01 07:25:32;;;;;;;15.90;8.27;;;;;;;;;;5014149;28;20223;-28
2023/03/01 07:27:59;;;;;;;16.33;10.37;;;;;;;;;;5012074;28;20236;-28
2023/03/01 07:30:28;;;;;;;16.37;10.13;;;;;;;;;;5006427;28;20191;-30
2023/03/01 07:32:55;;;;;;;19.47;11.20;;;;;;;;;;5013916;28;20297;-27
2023/03/01 07:35:24;;;;;;;15.80;10.63;;;;;;;;;;5013792;28;20567;-33
2023/03/01 07:37:51;;;;;;;15.63;10.27;;;;;;;;;;5008595;28;20254;-30
2023/03/01 07:40:19;;;;;;;18.93;10.47;;;;;;;;;;5009151;28;20230;-30
2023/03/01 07:42:47;;;;;;;18.17;11.03;;;;;;;;;;5009116;28;20207;-31
2023/03/01 07:45:14;;;;;;;16.07;10.20;;;;;;;;;;4996327;28;20590;-29
2023/03/01 07:47:41;;;;;;;20.60;12.03;;;;;;;;;;5013207;28;20930;-28
2023/03/01 07:50:09;;;;;;;17.50;10.63;;;;;;;;;;5013849;28;20211;-31
2023/03/01 07:52:38;;;;;;;16.83;11.30;;;;;;;;;;5003101;28;20208;-33
2023/03/01 07:57:42;;;;;;;17.93;11.57;;;;;;;;;;5149657;22;20236;-26
2023/03/01 08:00:11;;;;;;;17.77;11.40;;;;;;;;;;5042981;28;20230;-30
2023/03/01 08:02:40;;;;;;;18.50;12.00;;;;;;;;;;5064177;28;20202;-28
2023/03/01 08:05:07;;;;;;;18.33;11.50;;;;;;;;;;5071615;28;20194;-30
2023/03/01 08:07:34;;;;;;;17.67;12.27;;;;;;;;;;5048949;28;20233;-27
2023/03/01 08:10:03;;;;;;;20.07;11.40;;;;;;;;;;5042712;28;20199;-29
2023/03/01 08:12:31;;;;;;;19.00;11.47;;;;;;;;;;5048499;28;20206;-28
2023/03/01 08:14:58;;;;;;;16.03;10.60;;;;;;;;;;5036493;28;20279;-29
2023/03/01 08:17:25;;;;;;;17.97;10.37;;;;;;;;;;5058910;28;20222;-27
2023/03/01 08:19:52;;;;;;;20.07;11.70;;;;;;;;;;5050825;28;20222;-29
2023/03/01 08:22:20;;;;;;;17.57;12.07;;;;;;;;;;5050525;28;20206;-29
2023/03/01 08:24:49;;;;;;;16.47;10.40;;;;;;;;;;5066018;28;20243;-28
2023/03/01 08:27:20;;;;;;;18.83;11.77;;;;;;;;;;5064924;28;20581;-28
2023/03/01 08:29:47;;;;;;;17.40;11.57;;;;;;;;;;5032529;28;20213;-31
2023/03/01 08:32:14;;;;;;;16.57;10.23;;;;;;;;;;5050430;28;20202;-29
2023/03/01 08:34:41;;;;;;;17.37;11.50;;;;;;;;;;5070986;28;20206;-31
2023/03/01 08:37:09;;;;;;;16.10;10.00;;;;;;;;;;5049266;28;20241;-31
2023/03/01 08:39:36;;;;;;;23.07;12.73;;;;;;;;;;5053451;28;20205;-30
2023/03/01 08:42:03;;;;;;;14.93;9.07;;;;;;;;;;5069636;28;20304;-29
2023/03/01 08:44:33;;;;;;;14.30;9.90;;;;;;;;;;5037554;28;20206;-30
2023/03/01 08:47:02;;;;;;;9.37;6.23;;;;;;;;;;5059054;28;20225;-28
2023/03/01 08:49:29;;;;;;;14.13;9.40;;;;;;;;;;5050350;28;20369;-27
2023/03/01 08:51:56;;;;;;;16.83;9.60;;;;;;;;;;5054591;28;20202;-30
2023/03/01 08:54:23;;;;;;;17.73;11.67;;;;;;;;;;5050527;28;20220;-29
2023/03/01 08:56:51;;;;;;;17.00;11.23;;;;;;;;;;5050180;28;20236;-26
2023/03/01 08:59:19;;;;;;;18.13;12.53;;;;;;;;;;5045262;28;20214;-28
2023/03/01 09:01:47;;;;;;;17.47;12.27;;;;;;;;;;5044825;28;20316;-32
2023/03/01 09:04:16;;;;;;;16.57;9.33;;;;;;;;;;5050111;28;20318;-31
2023/03/01 09:06:44;;;;;;;14.53;9.37;;;;;;;;;;5047460;28;20306;-26
2023/03/01 09:09:14;;;;;;;16.57;9.37;;;;;;;;;;5045024;28;20210;-31
2023/03/01 09:11:41;;;;;;;17.40;11.00;;;;;;;;;;5063626;28;20196;-30
2023/03/01 09:14:09;;;;;;;22.07;12.13;;;;;;;;;;5046164;28;20206;-28
2023/03/01 09:16:36;;;;;;;17.53;11.27;;;;;;;;;;5056002;28;20305;-27
2023/03/01 09:19:05;;;;;;;12.13;8.77;;;;;;;;;;5053833;28;20208;-28
2023/03/01 09:21:32;;;;;;;11.70;8.37;;;;;;;;;;5050131;28;20279;-32
2023/03/01 09:24:00;;;;;;;13.23;8.60;;;;;;;;;;5040808;28;20216;-30
2023/03/01 09:26:27;;;;;;;16.70;12.07;;;;;;;;;;5053239;28;20232;-31
2023/03/01 09:28:55;;;;;;;19.63;11.80;;;;;;;;;;5039177;28;20209;-26
2023/03/01 09:31:23;;;;;;;15.90;9.87;;;;;;;;;;5050282;28;20197;-27
2023/03/01 09:33:51;;;;;;;18.23;11.10;;;;;;;;;;5049973;28;20213;-27
2023/03/01 09:36:21;;;;;;;9.33;5.87;;;;;;;;;;5050373;28;20572;-30
2023/03/01 09:38:49;;;;;;;18.97;12.67;;;;;;;;;;5050024;28;20197;-30
2023/03/01 09:41:23;;;;;;;18.70;12.63;;;;;;;;;;5058888;28;20225;-31
2023/03/01 09:43:53;;;;;;;13.87;7.90;;;;;;;;;;5040209;28;20203;-26
2023/03/01 09:46:22;;;;;;;19.40;12.83;;;;;;;;;;5052374;28;20737;-28
2023/03/01 09:48:51;;;;;;;16.70;11.17;;;;;;;;;;5070081;28;20201;-28
2023/03/01 09:51:25;;;;;;;13.80;8.40;;;;;;;;;;5060896;28;20202;-29
2023/03/01 09:53:54;;;;;;;14.03;9.83;;;;;;;;;;5043397;28;20244;-30
2023/03/01 09:56:23;;;;;;;15.47;11.20;;;;;;;;;;5070390;28;20225;-29
2023/03/01 09:58:54;;;;;;;18.37;10.43;;;;;;;;;;5042964;28;20203;-31
2023/03/01 10:01:32;;;;;;;16.60;10.90;;;;;;;;;;5053474;28;20233;-29
2023/03/01 10:04:14;;;;;;;17.00;11.10;;;;;;;;;;5070128;28;20213;-31
2023/03/01 10:06:45;;;;;;;18.00;12.30;;;;;;;;;;5058841;28;20223;-32
2023/03/01 10:09:14;;;;;;;5.67;4.70;;;;;;;;;;5036324;28;20206;-28
2023/03/01 10:11:44;;;;;;;20.17;10.97;;;;;;;;;;5055063;28;20196;-29
2023/03/01 10:14:17;;;;;;;19.53;11.97;;;;;;;;;;5042711;28;20687;-31
2023/03/01 10:16:49;;;;;;;12.97;7.50;;;;;;;;;;5054754;28;20236;-27
2023/03/01 10:19:21;;;;;;;13.63;6.60;;;;;;;;;;5076023;28;20677;-27
2023/03/01 10:21:52;;;;;;;16.27;10.13;;;;;;;;;;5052167;28;20210;-30
2023/03/01 10:24:21;;;;;;;18.77;12.57;;;;;;;;;;5046007;28;20385;-29
2023/03/01 10:26:59;;;;;;;8.93;5.70;;;;;;;;;;5067344;28;20259;-27
2023/03/01 10:29:28;;;;;;;18.80;11.43;;;;;;;;;;5045651;28;20202;-32
2023/03/01 10:31:55;;;;;;;17.40;10.20;;;;;;;;;;5060085;28;20201;-31
2023/03/01 10:34:24;;;;;;;17.20;11.93;;;;;;;;;;5052988;28;20206;-30
2023/03/01 10:36:54;;;;;;;15.53;9.63;;;;;;;;;;5049500;28;20226;-28
2023/03/01 10:39:22;;;;;;;16.63;9.27;;;;;;;;;;5062409;28;20263;-29
2023/03/01 10:41:57;;;;;;;17.00;11.57;;;;;;;;;;5072577;28;20231;-28
2023/03/01 10:44:38;;;;;;;16.37;10.80;;;;;;;;;;5046149;28;20193;-30
2023/03/01 10:47:07;;;;;;;15.60;10.17;;;;;;;;;;5052934;28;20289;-29
2023/03/01 10:49:34;;;;;;;14.67;8.80;;;;;;;;;;5072990;28;20574;-30
2023/03/01 10:52:13;;;;;;;13.17;7.57;;;;;;;;;;5050018;28;20213;-30
2023/03/01 10:54:41;;;;;;;7.87;3.80;;;;;;;;;;5058874;28;20561;-31
2023/03/01 10:57:26;;;;;;;17.67;11.20;;;;;;;;;;5070128;28;20724;-31
2023/03/01 11:00:03;;;;;;;14.63;10.20;;;;;;;;;;5034377;28;20210;-29
2023/03/01 11:02:32;;;;;;;15.37;7.40;;;;;;;;;;5047793;28;20319;-31
2023/03/01 11:05:01;;;;;;;13.37;6.80;;;;;;;;;;5072210;28;20237;-29
2023/03/01 11:07:30;;;;;;;16.93;11.10;;;;;;;;;;5063009;28;20214;-28
2023/03/01 11:09:57;;;;;;;18.47;10.93;;;;;;;;;;5040183;28;20207;-27
2023/03/01 11:12:25;;;;;;;16.20;8.70;;;;;;;;;;5057386;28;20214;-29
2023/03/01 11:14:54;;;;;;;16.77;10.20;;;;;;;;;;5046090;28;20202;-31
2023/03/01 11:17:24;;;;;;;15.23;10.17;;;;;;;;;;5061654;28;20228;-26
2023/03/01 11:20:03;;;;;;;19.43;10.13;;;;;;;;;;5071780;28;20217;-28
2023/03/01 11:22:33;;;;;;;10.77;6.63;;;;;;;;;;5047144;28;20234;-30
2023/03/01 11:25:01;;;;;;;13.30;8.53;;;;;;;;;;5050163;28;20213;-29
2023/03/01 11:27:30;;;;;;;15.87;9.23;;;;;;;;;;5057412;28;20290;-31
2023/03/01 11:29:59;;;;;;;18.20;11.33;;;;;;;;;;5039786;28;20210;-30
2023/03/01 11:32:27;;;;;;;14.97;10.23;;;;;;;;;;5054860;28;20536;-29
2023/03/01 11:34:58;;;;;;;15.10;9.70;;;;;;;;;;5071465;28;20215;-27
2023/03/01 11:37:30;;;;;;;16.20;10.87;;;;;;;;;;5058516;28;20240;-29
2023/03/01 11:40:06;;;;;;;15.20;9.73;;;;;;;;;;5050937;28;20206;-28
2023/03/01 11:42:41;;;;;;;14.83;10.80;;;;;;;;;;5046673;28;20222;-31
2023/03/01 11:45:11;;;;;;;14.53;9.73;;;;;;;;;;5041467;28;20213;-26
2023/03/01 11:47:59;;;;;;;17.67;10.73;;;;;;;;;;5066673;28;20224;-27
2023/03/01 11:50:32;;;;;;;16.87;10.50;;;;;;;;;;5025746;28;20206;-31
2023/03/01 11:53:14;;;;;;;14.50;9.47;;;;;;;;;;5042349;28;20280;-30
2023/03/01 11:55:50;;;;;;;17.70;11.33;;;;;;;;;;5041202;28;20207;-29
2023/03/01 11:58:36;;;;;;;17.57;10.83;;;;;;;;;;5050470;28;20202;-30
2023/03/01 12:01:09;;;;;;;17.33;10.33;;;;;;;;;;5048557;28;20228;-29
2023/03/01 12:03:44;;;;;;;13.13;8.80;;;;;;;;;;5056743;28;20201;-30
2023/03/01 12:06:16;;;;;;;17.73;11.10;;;;;;;;;;5061079;28;20229;-28
2023/03/01 12:08:46;;;;;;;15.40;9.70;;;;;;;;;;5043783;28;20207;-27
2023/03/01 12:11:21;;;;;;;16.57;9.73;;;;;;;;;;5062390;28;20209;-28
2023/03/01 12:14:12;;;;;;;15.37;9.70;;;;;;;;;;5048932;28;20288;-28
2023/03/01 12:16:58;;;;;;;17.70;10.97;;;;;;;;;;5048143;28;20316;-28
2023/03/01 12:19:31;;;;;;;16.23;9.93;;;;;;;;;;5070324;28;20209;-27
2023/03/01 12:22:04;;;;;;;16.13;8.53;;;;;;;;;;5056823;28;20415;-30
2023/03/01 12:24:52;;;;;;;13.87;8.83;;;;;;;;;;5054467;28;20255;-26
2023/03/01 12:27:28;;;;;;;13.10;8.10;;;;;;;;;;5060514;28;20225;-29
2023/03/01 12:30:01;;;;;;;16.43;10.67;;;;;;;;;;5038697;28;20206;-30
2023/03/01 12:32:41;;;;;;;18.10;11.13;;;;;;;;;;5053808;28;20194;-28
2023/03/01 12:35:17;;;;;;;19.00;10.00;;;;;;;;;;5070694;28;20578;-31
2023/03/01 12:37:49;;;;;;;17.93;9.27;;;;;;;;;;5059153;28;20231;-29
2023/03/01 12:40:35;;;;;;;11.40;7.33;;;;;;;;;;5058701;28;20202;-29
2023/03/01 12:43:17;;;;;;;12.97;7.87;;;;;;;;;;5047147;28;20241;-31
2023/03/01 12:46:02;;;;;;;13.90;9.77;;;;;;;;;;5043270;28;20227;-27
2023/03/01 12:48:35;;;;;;;7.00;4.70;;;;;;;;;;5057813;28;20206;-30
2023/03/01 12:51:04;;;;;;;13.33;8.33;;;;;;;;;;5050024;28;20214;-28
2023/03/01 12:53:33;;;;;;;16.27;9.80;;;;;;;;;;5041270;28;20233;-29
2023/03/01 12:56:02;;;;;;;14.47;6.67;;;;;;;;;;5054132;28;20210;-32
2023/03/01 12:58:33;;;;;;;16.13;10.40;;;;;;;;;;5038584;28;20203;-27
2023/03/01 13:01:07;;;;;;;8.67;6.00;;;;;;;;;;5050252;28;20205;-30
2023/03/01 13:03:43;;;;;;;13.67;9.57;;;;;;;;;;5072621;28;20209;-29
2023/03/01 13:06:13;;;;;;;16.27;10.37;;;;;;;;;;5063628;28;20202;-30
2023/03/01 13:08:44;;;;;;;15.20;10.93;;;;;;;;;;5061391;28;20201;-27
2023/03/01 13:11:16;;;;;;;15.20;9.63;;;;;;;;;;5055995;28;20198;-26
2023/03/01 13:13:46;;;;;;;16.70;9.77;;;;;;;;;;5051472;28;20202;-28
2023/03/01 13:16:22;;;;;;;15.80;10.13;;;;;;;;;;5049960;28;20229;-30
2023/03/01 13:18:49;;;;;;;16.07;10.40;;;;;;;;;;5049798;28;20208;-27
2023/03/01 13:21:30;;;;;;;12.87;8.00;;;;;;;;;;5049879;28;20210;-28
2023/03/01 13:23:57;;;;;;;15.87;9.87;;;;;;;;;;5044028;28;20202;-28
2023/03/01 13:26:24;;;;;;;15.57;8.40;;;;;;;;;;5057777;28;20247;-31
2023/03/01 13:28:55;;;;;;;11.50;8.23;;;;;;;;;;5042203;28;20206;-31
2023/03/01 13:31:43;;;;;;;10.93;7.57;;;;;;;;;;5053499;28;20201;-32
2023/03/01 13:34:40;;;;;;;12.03;8.50;;;;;;;;;;5046687;28;20202;-30
2023/03/01 13:37:12;;;;;;;14.33;8.47;;;;;;;;;;5045087;28;20577;-29
2023/03/01 13:39:41;;;;;;;16.13;8.40;;;;;;;;;;5054856;28;20212;-29
2023/03/01 13:42:23;;;;;;;16.93;8.13;;;;;;;;;;5063506;28;20244;-27
2023/03/01 13:44:50;;;;;;;11.63;7.60;;;;;;;;;;5039405;28;20207;-30
2023/03/01 13:47:18;;;;;;;12.73;8.67;;;;;;;;;;5047194;28;20221;-31
2023/03/01 13:49:50;;;;;;;12.53;8.67;;;;;;;;;;5049462;28;20205;-29
2023/03/01 13:52:39;;;;;;;11.83;7.10;;;;;;;;;;5048191;28;20207;-29
2023/03/01 13:55:18;;;;;;;16.73;9.73;;;;;;;;;;5046351;28;20202;-28
2023/03/01 14:00:30;;;;;;;14.60;9.53;;;;;;;;;;5026028;28;20215;-34
2023/03/01 14:03:19;;;;;;;15.17;9.33;;;;;;;;;;5035391;28;20287;-33
2023/03/01 14:06:02;;;;;;;15.17;9.60;;;;;;;;;;5032110;28;20228;-32
2023/03/01 14:08:37;;;;;;;14.77;9.73;;;;;;;;;;5007773;28;20676;-36
2023/03/01 14:11:22;;;;;;;21.17;9.83;;;;;;;;;;5015233;28;20234;-34
2023/03/01 14:13:57;;;;;;;14.73;9.33;;;;;;;;;;5007447;28;20657;-29
2023/03/01 14:16:30;;;;;;;16.20;10.33;;;;;;;;;;5016109;28;20226;-28
2023/03/01 14:19:05;;;;;;;14.83;7.87;;;;;;;;;;5016359;28;20227;-30
2023/03/01 14:21:35;;;;;;;10.07;7.13;;;;;;;;;;5006721;28;20203;-37
2023/03/01 14:24:02;;;;;;;15.97;8.87;;;;;;;;;;5015734;28;20309;-29
2023/03/01 14:26:33;;;;;;;14.53;8.03;;;;;;;;;;5007975;28;20230;-35
2023/03/01 14:29:00;;;;;;;13.13;8.80;;;;;;;;;;5013676;28;20298;-31
2023/03/01 14:31:34;;;;;;;10.43;6.57;;;;;;;;;;5015900;28;20222;-32
2023/03/01 14:34:02;;;;;;;14.20;8.47;;;;;;;;;;5015711;28;20206;-31
2023/03/01 14:36:32;;;;;;;14.77;8.67;;;;;;;;;;5016026;28;20307;-30
2023/03/01 14:39:05;;;;;;;17.43;11.23;;;;;;;;;;5007638;28;20218;-30
2023/03/01 14:41:35;;;;;;;15.23;9.70;;;;;;;;;;5008359;28;20195;-30
2023/03/01 14:44:04;;;;;;;15.37;7.13;;;;;;;;;;5006645;28;20209;-31
2023/03/01 14:46:34;;;;;;;10.13;6.20;;;;;;;;;;5007578;28;20301;-34
2023/03/01 14:49:10;;;;;;;8.60;6.13;;;;;;;;;;5015431;28;20207;-32
2023/03/01 14:51:44;;;;;;;10.93;7.67;;;;;;;;;;5010249;28;20211;-31